Rock Creek, North Carolina
Current Conditions -  °F | °C
As of 12:54 AM on Monday 20 Oct 2014 (Local Time) from KBUY Reporting Station
Clear Clear  
Wind Chill: 43°   Ceiling: Unl
Heat Index: 43°   Visibility: 10mi
Dew Point: 39°   Wind: 0mph
Humidity: 86%   Direction: NA
Pressure: 30.13"   Gusts: NA
Location:  35.9026°N, 79.4229°W
Report Text: KBUY 200454Z AUTO 00000KT 10SM CLR 06/04 A3013 RMK AO2 SLP202 T00610039 401890050
Loading
Personal Weather Stations






























Interactive Weather Map
Tropical Storm Tracking
New forecast layout! Learn more

10-Day Weather Forecast

Advertisements
Track Severe Weather on mobile